Sjobris — SLXP — position and weather

sailwx.info

Track history (hours):
 
Tides and Currents Weather Stations Pressure Air Temp Water Temp Dewpoint Dewpoint Depression Visibility Wind Speed Wind Dir Waves Ship Positions

Sjobris

Last reported at 2014-Oct-01 04:32 UTC. Time now 2014-Oct-01 14:16 UTC.
Position N 59°19' E 018°05'.

Length 38 m.

Type: Passenger vessel. MMSI: 265522700.

Date/timePositionNaut miles runAvg speedWind from/ knotsBaromVisibWave heightAir tempDewpointWater temp
2014-Oct-01 04:32N 59°19' E 018°05'0 0.0
2014-Sep-30 18:17N 59°20' E 018°04'0 0.0
2014-Sep-30 17:33N 59°20' E 018°04'0 0.0
2014-Sep-30 16:05N 59°20' E 018°04'0 0.0
2014-Sep-30 15:28N 59°20' E 018°04'0 0.0
2014-Sep-30 14:25N 59°20' E 018°04'0 0.0
2014-Sep-30 13:33N 59°20' E 018°04'0 0.0
2014-Sep-30 12:33N 59°20' E 018°04'0 0.0
2014-Sep-30 10:30N 59°20' E 018°04'0 0.0
2014-Sep-30 09:30N 59°20' E 018°04'0 0.0
2014-Sep-30 08:32N 59°20' E 018°04'0 0.0
2014-Sep-30 06:29N 59°20' E 018°04'0 0.0
2014-Sep-30 05:33N 59°20' E 018°04'0 0.0
2014-Sep-30 04:33N 59°20' E 018°04'0 0.0
2014-Sep-30 03:33N 59°20' E 018°04'0 0.1
2014-Sep-30 02:33N 59°20' E 018°05'0 0.1
2014-Sep-30 01:33N 59°20' E 018°04'0 0.0
2014-Sep-30 00:34N 59°20' E 018°04'0 0.0
2014-Sep-29 23:34N 59°20' E 018°04'0 0.0
2014-Sep-29 22:33N 59°20' E 018°04'0 0.0
2014-Sep-29 21:33N 59°20' E 018°04'0 0.0
2014-Sep-29 20:33N 59°20' E 018°04'0 0.0
2014-Sep-29 19:33N 59°20' E 018°04'0 0.0
2014-Sep-29 18:33N 59°20' E 018°04'0 0.0
2014-Sep-29 17:33N 59°20' E 018°04'0 0.0
2014-Sep-29 16:30N 59°20' E 018°04'0 0.0
2014-Sep-29 15:20N 59°20' E 018°04'0 0.0
2014-Sep-29 10:31N 59°20' E 018°04'0 0.0
2014-Sep-29 09:33N 59°20' E 018°04'0 0.0
2014-Sep-29 07:33N 59°20' E 018°04'0 0.0
2014-Sep-29 06:31N 59°20' E 018°04'0 0.0
2014-Sep-29 05:27N 59°20' E 018°04'0 0.0
2014-Sep-28 23:26N 59°20' E 018°04'0 0.0
2014-Sep-28 20:33N 59°20' E 018°04'0 0.0
2014-Sep-28 19:17N 59°20' E 018°04'0 0.0
2014-Sep-28 18:33N 59°20' E 018°04'0 0.0
2014-Sep-28 17:33N 59°20' E 018°04'1 1.0
2014-Sep-28 16:34N 59°19' E 018°06'3 0.3
2014-Sep-28 07:21N 59°20' E 018°11'4 4.4
2014-Sep-28 06:33N 59°20' E 018°05'0 0.0
2014-Sep-28 05:32N 59°20' E 018°05'0 0.0
2014-Sep-28 04:27N 59°20' E 018°05'0 0.0
2014-Sep-28 03:29N 59°20' E 018°05'0 0.0
2014-Sep-28 02:32N 59°20' E 018°05'0 0.0
2014-Sep-28 01:31N 59°20' E 018°05'0 0.0
2014-Sep-28 00:33N 59°20' E 018°05'0 0.0
2014-Sep-27 23:29N 59°20' E 018°05'0 0.0
2014-Sep-27 22:29N 59°20' E 018°05'0 0.0
2014-Sep-27 21:18N 59°20' E 018°05'0 0.0
2014-Sep-27 20:32N 59°20' E 018°05'0 0.0
2014-Sep-27 19:32N 59°20' E 018°04'0 0.0
2014-Sep-27 18:25N 59°20' E 018°05'0 0.0
2014-Sep-27 17:31N 59°20' E 018°05'0 0.0
2014-Sep-27 16:33N 59°20' E 018°04'8 6.6
2014-Sep-27 15:22N 59°23' E 018°19'4 0.5
2014-Sep-27 07:25N 59°20' E 018°13'4 4.6
2014-Sep-27 06:26N 59°20' E 018°04'0 0.0
2014-Sep-27 05:30N 59°20' E 018°04'0 0.0
2014-Sep-27 04:25N 59°20' E 018°04'0 0.0
2014-Sep-27 03:32N 59°20' E 018°04'0 0.0
2014-Sep-27 01:29N 59°20' E 018°04'0 0.0
2014-Sep-27 00:33N 59°20' E 018°04'0 0.0
2014-Sep-26 23:31N 59°20' E 018°04'0 0.0
2014-Sep-26 22:33N 59°20' E 018°04'0 0.0
2014-Sep-26 21:33N 59°20' E 018°04'0 0.0
2014-Sep-26 20:33N 59°20' E 018°04'0 0.0
2014-Sep-26 19:33N 59°20' E 018°04'0 0.0
2014-Sep-26 18:33N 59°20' E 018°04'0 0.0
2014-Sep-26 17:33N 59°20' E 018°04'0 0.0
2014-Sep-26 16:33N 59°20' E 018°04'0 0.0
2014-Sep-26 15:33N 59°20' E 018°04'0 0.0
2014-Sep-26 14:18N 59°20' E 018°04'0 0.0
2014-Sep-26 13:23N 59°20' E 018°04'0 0.0
2014-Sep-26 12:32N 59°20' E 018°04'0 0.0
2014-Sep-26 11:33N 59°20' E 018°04'0 0.0
2014-Sep-26 10:32N 59°20' E 018°04'0 0.0
2014-Sep-26 09:31N 59°20' E 018°04'0 0.0
2014-Sep-26 08:33N 59°20' E 018°04'0 0.0
2014-Sep-26 07:07N 59°20' E 018°04'0 0.0
2014-Sep-26 06:31N 59°20' E 018°04'0 0.0
2014-Sep-26 05:13N 59°20' E 018°04'0 0.0
2014-Sep-26 04:34N 59°20' E 018°04'0 0.0
2014-Sep-26 03:33N 59°20' E 018°04'0 0.0
2014-Sep-26 02:33N 59°20' E 018°04'0 0.0
2014-Sep-26 01:33N 59°20' E 018°04'0 0.0
2014-Sep-26 00:33N 59°20' E 018°04'0 0.0
2014-Sep-25 23:33N 59°20' E 018°04'0 0.0
2014-Sep-25 22:33N 59°20' E 018°04'0 0.0
2014-Sep-25 21:33N 59°20' E 018°04'0 0.0
2014-Sep-25 20:33N 59°20' E 018°04'0 0.0
2014-Sep-25 19:33N 59°20' E 018°04'0 0.0
2014-Sep-25 18:33N 59°20' E 018°04'0 0.0
2014-Sep-25 17:33N 59°20' E 018°04'0 0.0
2014-Sep-25 16:33N 59°20' E 018°04'0 0.0
2014-Sep-25 15:03N 59°20' E 018°04'0 0.0
2014-Sep-25 14:33N 59°20' E 018°04'0 0.0
2014-Sep-25 13:33N 59°20' E 018°04'0 0.0
2014-Sep-25 12:28N 59°20' E 018°04'0 0.0
2014-Sep-25 11:33N 59°20' E 018°04'0 0.0
2014-Sep-25 10:25N 59°20' E 018°04'0 0.0
2014-Sep-25 09:30N 59°20' E 018°04'0 0.0
2014-Sep-25 08:31N 59°20' E 018°04'0 0.0
2014-Sep-25 07:18N 59°20' E 018°04'0 0.0
2014-Sep-25 06:33N 59°20' E 018°04'0 0.0
2014-Sep-25 05:33N 59°20' E 018°04'0 0.0
2014-Sep-25 04:33N 59°20' E 018°04'0 0.0
2014-Sep-25 03:33N 59°20' E 018°04'0 0.0
2014-Sep-25 02:33N 59°20' E 018°04'0 0.0
2014-Sep-25 01:33N 59°20' E 018°04'0 0.0
2014-Sep-25 00:33N 59°20' E 018°04'0 0.0
2014-Sep-24 23:34N 59°20' E 018°04'0 0.0
2014-Sep-24 22:33N 59°20' E 018°04'0 0.0
2014-Sep-24 21:33N 59°20' E 018°04'0 0.0
2014-Sep-24 20:33N 59°20' E 018°04'0 0.0
2014-Sep-24 19:33N 59°20' E 018°04'0 0.0
2014-Sep-24 18:33N 59°20' E 018°04'0 0.0
2014-Sep-24 17:33N 59°20' E 018°04'0 0.0
2014-Sep-24 16:33N 59°20' E 018°04'0 0.0
2014-Sep-24 15:33N 59°20' E 018°04'0 0.0
2014-Sep-24 14:33N 59°20' E 018°04'0 0.0
2014-Sep-24 13:33N 59°20' E 018°04'0 0.0
2014-Sep-24 12:13N 59°20' E 018°04'0 0.0
2014-Sep-24 11:29N 59°20' E 018°04'0 0.1
2014-Sep-24 10:31N 59°20' E 018°05'0 0.1
2014-Sep-24 09:31N 59°20' E 018°04'0 0.0
2014-Sep-24 08:30N 59°20' E 018°04'0 0.0
2014-Sep-24 06:30N 59°20' E 018°04'0 0.0
2014-Sep-24 05:31N 59°20' E 018°04'0 0.0
2014-Sep-24 04:33N 59°20' E 018°04'0 0.0
2014-Sep-23 19:33N 59°20' E 018°05'0 0.0
2014-Sep-23 18:33N 59°20' E 018°04'0 0.0
2014-Sep-23 17:33N 59°20' E 018°04'0 0.0
2014-Sep-23 16:33N 59°20' E 018°04'0 0.0
2014-Sep-23 15:32N 59°20' E 018°04'0 0.0
2014-Sep-23 14:09N 59°20' E 018°04'0 0.0
2014-Sep-23 13:31N 59°20' E 018°04'0 0.0
2014-Sep-23 12:19N 59°20' E 018°04'0 0.0
2014-Sep-23 11:30N 59°20' E 018°04'0 0.0
2014-Sep-23 10:29N 59°20' E 018°04'0 0.0
2014-Sep-23 09:32N 59°20' E 018°04'0 0.0
2014-Sep-23 08:32N 59°20' E 018°04'0 0.0
2014-Sep-23 07:33N 59°20' E 018°04'0 0.0
2014-Sep-23 06:33N 59°20' E 018°04'0 0.0
2014-Sep-23 05:32N 59°20' E 018°04'0 0.0
2014-Sep-23 04:33N 59°20' E 018°04'0 0.0
2014-Sep-23 03:33N 59°20' E 018°04'0 0.0
2014-Sep-23 02:33N 59°20' E 018°04'0 0.0
2014-Sep-23 01:33N 59°20' E 018°04'0 0.0
2014-Sep-23 00:33N 59°20' E 018°04'0 0.0
2014-Sep-22 23:28N 59°20' E 018°04'0 0.0
2014-Sep-22 22:33N 59°20' E 018°04'0 0.0
2014-Sep-22 21:33N 59°20' E 018°04'0 0.0
2014-Sep-22 20:33N 59°20' E 018°04'0 0.0
2014-Sep-22 19:33N 59°20' E 018°04'0 0.0
2014-Sep-22 18:33N 59°20' E 018°04'0 0.0
2014-Sep-22 17:33N 59°20' E 018°04'0 0.0
2014-Sep-22 16:33N 59°20' E 018°04'0 0.0
2014-Sep-22 15:33N 59°20' E 018°04'0 0.0
2014-Sep-22 14:32N 59°20' E 018°04'0 0.0
2014-Sep-22 13:33N 59°20' E 018°04'0 0.0
2014-Sep-22 12:33N 59°20' E 018°04'0 0.0
2014-Sep-22 11:33N 59°20' E 018°04'0 0.0
2014-Sep-22 10:33N 59°20' E 018°04'0 0.0
2014-Sep-22 09:31N 59°20' E 018°04'0 0.0
2014-Sep-22 08:33N 59°20' E 018°04'0 0.0
2014-Sep-22 07:25N 59°20' E 018°04'0 0.0
2014-Sep-22 06:28N 59°20' E 018°04'0 0.0
2014-Sep-22 05:31N 59°20' E 018°04'0 0.0
2014-Sep-22 04:33N 59°20' E 018°04'0 0.0
2014-Sep-22 03:18N 59°20' E 018°04'0 0.0
2014-Sep-22 02:34N 59°20' E 018°04'0 0.0
2014-Sep-22 01:33N 59°20' E 018°04'0 0.0
2014-Sep-22 00:33N 59°20' E 018°04'0 0.0
2014-Sep-21 23:33N 59°20' E 018°04'0 0.0
2014-Sep-21 22:29N 59°20' E 018°04'0 0.0
2014-Sep-21 21:27N 59°20' E 018°04'0 0.0
2014-Sep-21 19:06N 59°20' E 018°04'0 0.1
2014-Sep-21 17:33N 59°20' E 018°04'1 1.2
2014-Sep-21 16:33N 59°19' E 018°07'3 0.3
2014-Sep-21 07:19N 59°20' E 018°11'  
Track history (hours):
 
Tides and Currents Weather Stations Pressure Air Temp Water Temp Dewpoint Dewpoint Depression Visibility Wind Speed Wind Dir Waves Ship Positions

Sjobris

Last reported at 2014-Oct-01 04:32 UTC. Time now 2014-Oct-01 14:16 UTC.
Position N 59°19' E 018°05'.

Length 38 m.

Type: Passenger vessel. MMSI: 265522700.

Date/timePositionNaut miles runAvg speedWind from/ knotsBaromVisibWave heightAir tempDewpointWater temp
2014-Oct-01 04:32N 59°19' E 018°05'0 0.0
2014-Sep-30 18:17N 59°20' E 018°04'0 0.0
2014-Sep-30 17:33N 59°20' E 018°04'0 0.0
2014-Sep-30 16:05N 59°20' E 018°04'0 0.0
2014-Sep-30 15:28N 59°20' E 018°04'0 0.0
2014-Sep-30 14:25N 59°20' E 018°04'0 0.0
2014-Sep-30 13:33N 59°20' E 018°04'0 0.0
2014-Sep-30 12:33N 59°20' E 018°04'0 0.0
2014-Sep-30 10:30N 59°20' E 018°04'0 0.0
2014-Sep-30 09:30N 59°20' E 018°04'0 0.0
2014-Sep-30 08:32N 59°20' E 018°04'0 0.0
2014-Sep-30 06:29N 59°20' E 018°04'0 0.0
2014-Sep-30 05:33N 59°20' E 018°04'0 0.0
2014-Sep-30 04:33N 59°20' E 018°04'0 0.0
2014-Sep-30 03:33N 59°20' E 018°04'0 0.1
2014-Sep-30 02:33N 59°20' E 018°05'0 0.1
2014-Sep-30 01:33N 59°20' E 018°04'0 0.0
2014-Sep-30 00:34N 59°20' E 018°04'0 0.0
2014-Sep-29 23:34N 59°20' E 018°04'0 0.0
2014-Sep-29 22:33N 59°20' E 018°04'0 0.0
2014-Sep-29 21:33N 59°20' E 018°04'0 0.0
2014-Sep-29 20:33N 59°20' E 018°04'0 0.0
2014-Sep-29 19:33N 59°20' E 018°04'0 0.0
2014-Sep-29 18:33N 59°20' E 018°04'0 0.0
2014-Sep-29 17:33N 59°20' E 018°04'0 0.0
2014-Sep-29 16:30N 59°20' E 018°04'0 0.0
2014-Sep-29 15:20N 59°20' E 018°04'0 0.0
2014-Sep-29 10:31N 59°20' E 018°04'0 0.0
2014-Sep-29 09:33N 59°20' E 018°04'0 0.0
2014-Sep-29 07:33N 59°20' E 018°04'0 0.0
2014-Sep-29 06:31N 59°20' E 018°04'0 0.0
2014-Sep-29 05:27N 59°20' E 018°04'0 0.0
2014-Sep-28 23:26N 59°20' E 018°04'0 0.0
2014-Sep-28 20:33N 59°20' E 018°04'0 0.0
2014-Sep-28 19:17N 59°20' E 018°04'0 0.0
2014-Sep-28 18:33N 59°20' E 018°04'0 0.0
2014-Sep-28 17:33N 59°20' E 018°04'1 1.0
2014-Sep-28 16:34N 59°19' E 018°06'3 0.3
2014-Sep-28 07:21N 59°20' E 018°11'4 4.4
2014-Sep-28 06:33N 59°20' E 018°05'0 0.0
2014-Sep-28 05:32N 59°20' E 018°05'0 0.0
2014-Sep-28 04:27N 59°20' E 018°05'0 0.0
2014-Sep-28 03:29N 59°20' E 018°05'0 0.0
2014-Sep-28 02:32N 59°20' E 018°05'0 0.0
2014-Sep-28 01:31N 59°20' E 018°05'0 0.0
2014-Sep-28 00:33N 59°20' E 018°05'0 0.0
2014-Sep-27 23:29N 59°20' E 018°05'0 0.0
2014-Sep-27 22:29N 59°20' E 018°05'0 0.0
2014-Sep-27 21:18N 59°20' E 018°05'0 0.0
2014-Sep-27 20:32N 59°20' E 018°05'0 0.0
2014-Sep-27 19:32N 59°20' E 018°04'0 0.0
2014-Sep-27 18:25N 59°20' E 018°05'0 0.0
2014-Sep-27 17:31N 59°20' E 018°05'0 0.0
2014-Sep-27 16:33N 59°20' E 018°04'8 6.6
2014-Sep-27 15:22N 59°23' E 018°19'4 0.5
2014-Sep-27 07:25N 59°20' E 018°13'4 4.6
2014-Sep-27 06:26N 59°20' E 018°04'0 0.0
2014-Sep-27 05:30N 59°20' E 018°04'0 0.0
2014-Sep-27 04:25N 59°20' E 018°04'0 0.0
2014-Sep-27 03:32N 59°20' E 018°04'0 0.0
2014-Sep-27 01:29N 59°20' E 018°04'0 0.0
2014-Sep-27 00:33N 59°20' E 018°04'0 0.0
2014-Sep-26 23:31N 59°20' E 018°04'0 0.0
2014-Sep-26 22:33N 59°20' E 018°04'0 0.0
2014-Sep-26 21:33N 59°20' E 018°04'0 0.0
2014-Sep-26 20:33N 59°20' E 018°04'0 0.0
2014-Sep-26 19:33N 59°20' E 018°04'0 0.0
2014-Sep-26 18:33N 59°20' E 018°04'0 0.0
2014-Sep-26 17:33N 59°20' E 018°04'0 0.0
2014-Sep-26 16:33N 59°20' E 018°04'0 0.0
2014-Sep-26 15:33N 59°20' E 018°04'0 0.0
2014-Sep-26 14:18N 59°20' E 018°04'0 0.0
2014-Sep-26 13:23N 59°20' E 018°04'0 0.0
2014-Sep-26 12:32N 59°20' E 018°04'0 0.0
2014-Sep-26 11:33N 59°20' E 018°04'0 0.0
2014-Sep-26 10:32N 59°20' E 018°04'0 0.0
2014-Sep-26 09:31N 59°20' E 018°04'0 0.0
2014-Sep-26 08:33N 59°20' E 018°04'0 0.0
2014-Sep-26 07:07N 59°20' E 018°04'0 0.0
2014-Sep-26 06:31N 59°20' E 018°04'0 0.0
2014-Sep-26 05:13N 59°20' E 018°04'0 0.0
2014-Sep-26 04:34N 59°20' E 018°04'0 0.0
2014-Sep-26 03:33N 59°20' E 018°04'0 0.0
2014-Sep-26 02:33N 59°20' E 018°04'0 0.0
2014-Sep-26 01:33N 59°20' E 018°04'0 0.0
2014-Sep-26 00:33N 59°20' E 018°04'0 0.0
2014-Sep-25 23:33N 59°20' E 018°04'0 0.0
2014-Sep-25 22:33N 59°20' E 018°04'0 0.0
2014-Sep-25 21:33N 59°20' E 018°04'0 0.0
2014-Sep-25 20:33N 59°20' E 018°04'0 0.0
2014-Sep-25 19:33N 59°20' E 018°04'0 0.0
2014-Sep-25 18:33N 59°20' E 018°04'0 0.0
2014-Sep-25 17:33N 59°20' E 018°04'0 0.0
2014-Sep-25 16:33N 59°20' E 018°04'0 0.0
2014-Sep-25 15:03N 59°20' E 018°04'0 0.0
2014-Sep-25 14:33N 59°20' E 018°04'0 0.0
2014-Sep-25 13:33N 59°20' E 018°04'0 0.0
2014-Sep-25 12:28N 59°20' E 018°04'0 0.0
2014-Sep-25 11:33N 59°20' E 018°04'0 0.0
2014-Sep-25 10:25N 59°20' E 018°04'0 0.0
2014-Sep-25 09:30N 59°20' E 018°04'0 0.0
2014-Sep-25 08:31N 59°20' E 018°04'0 0.0
2014-Sep-25 07:18N 59°20' E 018°04'0 0.0
2014-Sep-25 06:33N 59°20' E 018°04'0 0.0
2014-Sep-25 05:33N 59°20' E 018°04'0 0.0
2014-Sep-25 04:33N 59°20' E 018°04'0 0.0
2014-Sep-25 03:33N 59°20' E 018°04'0 0.0
2014-Sep-25 02:33N 59°20' E 018°04'0 0.0
2014-Sep-25 01:33N 59°20' E 018°04'0 0.0
2014-Sep-25 00:33N 59°20' E 018°04'0 0.0
2014-Sep-24 23:34N 59°20' E 018°04'0 0.0
2014-Sep-24 22:33N 59°20' E 018°04'0 0.0
2014-Sep-24 21:33N 59°20' E 018°04'0 0.0
2014-Sep-24 20:33N 59°20' E 018°04'0 0.0
2014-Sep-24 19:33N 59°20' E 018°04'0 0.0
2014-Sep-24 18:33N 59°20' E 018°04'0 0.0
2014-Sep-24 17:33N 59°20' E 018°04'0 0.0
2014-Sep-24 16:33N 59°20' E 018°04'0 0.0
2014-Sep-24 15:33N 59°20' E 018°04'0 0.0
2014-Sep-24 14:33N 59°20' E 018°04'0 0.0
2014-Sep-24 13:33N 59°20' E 018°04'0 0.0
2014-Sep-24 12:13N 59°20' E 018°04'0 0.0
2014-Sep-24 11:29N 59°20' E 018°04'0 0.1
2014-Sep-24 10:31N 59°20' E 018°05'0 0.1
2014-Sep-24 09:31N 59°20' E 018°04'0 0.0
2014-Sep-24 08:30N 59°20' E 018°04'0 0.0
2014-Sep-24 06:30N 59°20' E 018°04'0 0.0
2014-Sep-24 05:31N 59°20' E 018°04'0 0.0
2014-Sep-24 04:33N 59°20' E 018°04'0 0.0
2014-Sep-23 19:33N 59°20' E 018°05'0 0.0
2014-Sep-23 18:33N 59°20' E 018°04'0 0.0
2014-Sep-23 17:33N 59°20' E 018°04'0 0.0
2014-Sep-23 16:33N 59°20' E 018°04'0 0.0
2014-Sep-23 15:32N 59°20' E 018°04'0 0.0
2014-Sep-23 14:09N 59°20' E 018°04'0 0.0
2014-Sep-23 13:31N 59°20' E 018°04'0 0.0
2014-Sep-23 12:19N 59°20' E 018°04'0 0.0
2014-Sep-23 11:30N 59°20' E 018°04'0 0.0
2014-Sep-23 10:29N 59°20' E 018°04'0 0.0
2014-Sep-23 09:32N 59°20' E 018°04'0 0.0
2014-Sep-23 08:32N 59°20' E 018°04'0 0.0
2014-Sep-23 07:33N 59°20' E 018°04'0 0.0
2014-Sep-23 06:33N 59°20' E 018°04'0 0.0
2014-Sep-23 05:32N 59°20' E 018°04'0 0.0
2014-Sep-23 04:33N 59°20' E 018°04'0 0.0
2014-Sep-23 03:33N 59°20' E 018°04'0 0.0
2014-Sep-23 02:33N 59°20' E 018°04'0 0.0
2014-Sep-23 01:33N 59°20' E 018°04'0 0.0
2014-Sep-23 00:33N 59°20' E 018°04'0 0.0
2014-Sep-22 23:28N 59°20' E 018°04'0 0.0
2014-Sep-22 22:33N 59°20' E 018°04'0 0.0
2014-Sep-22 21:33N 59°20' E 018°04'0 0.0
2014-Sep-22 20:33N 59°20' E 018°04'0 0.0
2014-Sep-22 19:33N 59°20' E 018°04'0 0.0
2014-Sep-22 18:33N 59°20' E 018°04'0 0.0
2014-Sep-22 17:33N 59°20' E 018°04'0 0.0
2014-Sep-22 16:33N 59°20' E 018°04'0 0.0
2014-Sep-22 15:33N 59°20' E 018°04'0 0.0
2014-Sep-22 14:32N 59°20' E 018°04'0 0.0
2014-Sep-22 13:33N 59°20' E 018°04'0 0.0
2014-Sep-22 12:33N 59°20' E 018°04'0 0.0
2014-Sep-22 11:33N 59°20' E 018°04'0 0.0
2014-Sep-22 10:33N 59°20' E 018°04'0 0.0
2014-Sep-22 09:31N 59°20' E 018°04'0 0.0
2014-Sep-22 08:33N 59°20' E 018°04'0 0.0
2014-Sep-22 07:25N 59°20' E 018°04'0 0.0
2014-Sep-22 06:28N 59°20' E 018°04'0 0.0
2014-Sep-22 05:31N 59°20' E 018°04'0 0.0
2014-Sep-22 04:33N 59°20' E 018°04'0 0.0
2014-Sep-22 03:18N 59°20' E 018°04'0 0.0
2014-Sep-22 02:34N 59°20' E 018°04'0 0.0
2014-Sep-22 01:33N 59°20' E 018°04'0 0.0
2014-Sep-22 00:33N 59°20' E 018°04'0 0.0
2014-Sep-21 23:33N 59°20' E 018°04'0 0.0
2014-Sep-21 22:29N 59°20' E 018°04'0 0.0
2014-Sep-21 21:27N 59°20' E 018°04'0 0.0
2014-Sep-21 19:06N 59°20' E 018°04'0 0.1
2014-Sep-21 17:33N 59°20' E 018°04'1 1.2
2014-Sep-21 16:33N 59°19' E 018°07'3 0.3
2014-Sep-21 07:19N 59°20' E 018°11'  

Dump ship's entire track history